Time;durP1;ratioP1;P1;durP2;ratioP2;P2;SDS_P1;SDS_P2;PMS_P1;PMS_P2;Temp;Humidity;BMP_temperature;BMP_pressure;BME280_temperature;BME280_humidity;BME280_pressure;Samples;Min_cycle;Max_cycle;Signal;HPM_P1;HPM_P2
2022/11/29 00:01:06;;;;;;;10.00;9.10;;;9.40;46.40;;;;;;10419434;28;20654;-68
2022/11/29 00:06:11;;;;;;;9.40;8.50;;;9.40;46.30;;;;;;10423121;28;20226;-67
2022/11/29 00:12:10;;;;;;;9.90;9.00;;;9.40;46.50;;;;;;10431305;28;20775;-67
2022/11/29 00:16:41;;;;;;;9.37;8.47;;;9.30;46.60;;;;;;10431138;28;20303;-67
2022/11/29 00:21:44;;;;;;;8.40;7.60;;;9.30;46.60;;;;;;10443522;28;20323;-67
2022/11/29 00:26:49;;;;;;;10.00;9.10;;;9.20;46.70;;;;;;10418300;28;20233;-67
2022/11/29 00:31:52;;;;;;;9.57;8.53;;;9.20;47.00;;;;;;10432026;28;20236;-67
2022/11/29 00:36:55;;;;;;;9.93;8.97;;;9.20;46.90;;;;;;10430490;28;20642;-67
2022/11/29 00:42:00;;;;;;;9.53;8.63;;;9.20;47.00;;;;;;10415074;28;20232;-67
2022/11/29 00:47:03;;;;;;;10.30;9.30;;;9.30;47.20;;;;;;10418373;28;20307;-68
2022/11/29 00:52:06;;;;;;;10.73;9.03;;;9.30;47.00;;;;;;10415269;28;20896;-67
2022/11/29 00:57:10;;;;;;;8.93;8.13;;;9.20;47.00;;;;;;10419162;28;20234;-67
2022/11/29 01:02:13;;;;;;;8.67;7.87;;;9.30;47.30;;;;;;10425700;28;20232;-68
2022/11/29 01:07:17;;;;;;;9.23;8.40;;;9.30;47.00;;;;;;10428993;28;20252;-69
2022/11/29 01:12:21;;;;;;;9.30;8.40;;;9.30;47.20;;;;;;10427237;28;20240;-69
2022/11/29 01:17:24;;;;;;;9.03;8.23;;;9.30;47.40;;;;;;10427547;28;20599;-69
2022/11/29 01:22:27;;;;;;;9.10;8.30;;;9.30;47.20;;;;;;10432728;28;20229;-69
2022/11/29 01:27:33;;;;;;;9.13;8.33;;;9.40;47.30;;;;;;10434031;28;20688;-67
2022/11/29 01:32:36;;;;;;;8.57;7.80;;;9.30;47.30;;;;;;10443474;28;20268;-67
2022/11/29 01:37:39;;;;;;;9.13;8.33;;;9.40;47.20;;;;;;10422451;28;20265;-67
2022/11/29 01:42:44;;;;;;;8.07;7.27;;;9.40;47.20;;;;;;10439066;28;20237;-67
2022/11/29 01:47:51;;;;;;;9.60;8.70;;;9.40;47.30;;;;;;10435795;28;20233;-67
2022/11/29 01:52:54;;;;;;;8.97;8.20;;;9.50;47.20;;;;;;10429035;28;20285;-67
2022/11/29 01:58:00;;;;;;;8.50;7.70;;;9.40;47.70;;;;;;10432438;28;20241;-67
2022/11/29 02:03:08;;;;;;;7.73;7.03;;;9.40;47.40;;;;;;10442657;28;20236;-67
2022/11/29 02:08:14;;;;;;;7.63;6.93;;;9.40;47.40;;;;;;10422966;28;20252;-67
2022/11/29 02:13:27;;;;;;;7.60;6.90;;;9.40;47.40;;;;;;10437348;28;20229;-67
2022/11/29 02:18:43;;;;;;;8.33;7.63;;;9.40;47.60;;;;;;10445806;28;20715;-67
2022/11/29 02:24:21;;;;;;;8.53;7.73;;;9.50;47.60;;;;;;10432290;28;20241;-67
2022/11/29 02:30:03;;;;;;;7.67;7.07;;;9.50;47.70;;;;;;10437442;28;20233;-67
2022/11/29 02:35:24;;;;;;;8.37;7.67;;;9.50;47.70;;;;;;10435175;28;20237;-67
2022/11/29 02:40:48;;;;;;;9.17;8.27;;;9.50;47.60;;;;;;10439590;28;20854;-67
2022/11/29 02:46:08;;;;;;;9.60;8.60;;;9.50;47.40;;;;;;10432973;28;20264;-67
2022/11/29 02:51:22;;;;;;;9.13;8.23;;;9.50;47.30;;;;;;10436875;28;20259;-67
2022/11/29 02:56:32;;;;;;;8.20;7.47;;;9.50;47.30;;;;;;10435392;28;20232;-67
2022/11/29 03:01:45;;;;;;;9.30;8.50;;;9.50;47.30;;;;;;10424849;28;20244;-67
2022/11/29 03:07:00;;;;;;;8.13;7.43;;;9.50;47.30;;;;;;10424437;28;20328;-67
2022/11/29 03:12:16;;;;;;;9.30;8.40;;;9.40;47.30;;;;;;10440668;28;20233;-67
2022/11/29 03:17:30;;;;;;;8.77;8.07;;;9.40;47.30;;;;;;10421192;28;20225;-67
2022/11/29 03:22:46;;;;;;;9.17;8.30;;;9.40;47.40;;;;;;10431915;28;20306;-67
2022/11/29 03:27:55;;;;;;;9.60;8.73;;;9.40;47.50;;;;;;10436855;28;20235;-67
2022/11/29 03:33:06;;;;;;;8.40;7.63;;;9.30;47.20;;;;;;10432315;28;20588;-67
2022/11/29 03:38:20;;;;;;;7.57;6.97;;;9.30;47.40;;;;;;10435551;28;20229;-67
2022/11/29 03:43:29;;;;;;;8.60;7.80;;;9.30;47.70;;;;;;10428806;28;20226;-67
2022/11/29 03:48:37;;;;;;;8.10;7.40;;;9.30;47.40;;;;;;10424497;28;20237;-67
2022/11/29 03:53:50;;;;;;;8.73;7.93;;;9.30;47.40;;;;;;10430081;28;20256;-67
2022/11/29 03:59:03;;;;;;;8.13;7.43;;;9.30;47.60;;;;;;10412998;28;20660;-67
2022/11/29 04:04:36;;;;;;;8.77;7.97;;;9.20;47.50;;;;;;10426230;28;20248;-67
2022/11/29 04:10:04;;;;;;;8.53;7.73;;;9.30;47.60;;;;;;10438146;28;20310;-67
2022/11/29 04:15:36;;;;;;;7.77;7.07;;;9.30;47.50;;;;;;10434358;28;20267;-67
2022/11/29 04:21:19;;;;;;;8.07;7.37;;;9.20;47.50;;;;;;10430644;28;20233;-67
2022/11/29 04:27:13;;;;;;;8.30;7.67;;;9.20;47.50;;;;;;10426167;28;20221;-67
2022/11/29 04:32:34;;;;;;;8.30;7.50;;;9.20;47.60;;;;;;10423372;28;20232;-67
2022/11/29 04:38:03;;;;;;;7.80;7.20;;;9.10;47.30;;;;;;10432916;28;20240;-67
2022/11/29 04:43:36;;;;;;;7.17;6.53;;;9.10;47.60;;;;;;10431532;28;20237;-67
2022/11/29 04:49:14;;;;;;;7.20;6.60;;;9.10;47.70;;;;;;10425728;28;20244;-67
2022/11/29 04:54:28;;;;;;;8.13;7.43;;;9.10;47.70;;;;;;10429102;28;20377;-67
2022/11/29 04:59:40;;;;;;;8.90;8.10;;;9.10;47.50;;;;;;10432943;28;20705;-67
2022/11/29 05:04:51;;;;;;;9.20;8.40;;;9.10;47.50;;;;;;10432417;28;20326;-67
2022/11/29 05:10:06;;;;;;;8.53;7.77;;;9.10;47.70;;;;;;10433240;28;20236;-67
2022/11/29 05:15:27;;;;;;;8.13;7.33;;;9.10;47.70;;;;;;10430443;28;20227;-67
2022/11/29 05:20:41;;;;;;;10.03;9.03;;;9.10;47.70;;;;;;10432500;28;20233;-67
2022/11/29 05:25:55;;;;;;;10.70;9.70;;;9.10;47.60;;;;;;10432398;28;20237;-67
2022/11/29 05:31:21;;;;;;;10.03;9.13;;;9.10;47.50;;;;;;10433475;28;20229;-67
2022/11/29 05:36:33;;;;;;;9.87;9.07;;;9.00;47.60;;;;;;10427373;28;20249;-67
2022/11/29 05:42:02;;;;;;;10.03;9.13;;;9.00;47.50;;;;;;10425789;28;20290;-67
2022/11/29 05:47:08;;;;;;;10.07;9.17;;;9.00;47.70;;;;;;10427187;28;20845;-68
2022/11/29 05:52:37;;;;;;;11.43;10.33;;;9.00;47.50;;;;;;10432237;28;20331;-70
2022/11/29 05:57:46;;;;;;;11.13;10.10;;;9.00;48.00;;;;;;10417213;28;20229;-70
2022/11/29 06:02:58;;;;;;;9.17;8.37;;;9.00;47.70;;;;;;10414893;28;20236;-70
2022/11/29 06:08:08;;;;;;;13.67;12.40;;;9.00;47.90;;;;;;10415990;28;20217;-69
2022/11/29 06:13:21;;;;;;;12.50;11.20;;;9.00;47.90;;;;;;10416045;28;20228;-67
2022/11/29 06:18:45;;;;;;;11.17;10.10;;;9.10;48.00;;;;;;10422104;28;20229;-67
2022/11/29 06:24:16;;;;;;;9.73;8.80;;;9.10;48.00;;;;;;10428310;28;20221;-67
2022/11/29 06:29:36;;;;;;;11.90;10.70;;;9.10;49.80;;;;;;10431595;28;20647;-67
2022/11/29 06:34:46;;;;;;;11.53;10.53;;;9.10;48.50;;;;;;10430191;28;20233;-67
2022/11/29 06:39:50;;;;;;;12.00;10.83;;;9.20;48.10;;;;;;10438061;28;20228;-66
2022/11/29 06:44:55;;;;;;;12.33;10.33;;;9.20;47.70;;;;;;10440119;28;20225;-66
2022/11/29 06:50:08;;;;;;;10.70;9.70;;;9.10;47.70;;;;;;10425156;28;20233;-72
2022/11/29 06:55:18;;;;;;;11.57;10.50;;;9.10;48.00;;;;;;10425589;28;20221;-72
2022/11/29 07:00:25;;;;;;;11.30;10.17;;;9.10;48.00;;;;;;10426833;28;20291;-72
2022/11/29 07:05:30;;;;;;;12.30;11.10;;;9.00;47.90;;;;;;10428091;28;20233;-72
2022/11/29 07:10:37;;;;;;;10.93;9.93;;;9.10;47.80;;;;;;10431718;28;20244;-72
2022/11/29 07:15:49;;;;;;;11.20;10.13;;;9.00;48.00;;;;;;10430091;28;20283;-72
2022/11/29 07:21:04;;;;;;;11.37;10.27;;;9.00;48.10;;;;;;10429387;28;20234;-72
2022/11/29 07:26:21;;;;;;;11.27;10.17;;;9.00;48.20;;;;;;10428458;28;20217;-71
2022/11/29 07:31:36;;;;;;;11.23;10.13;;;9.00;48.20;;;;;;10428660;28;20228;-72
2022/11/29 07:36:49;;;;;;;11.33;10.23;;;9.00;48.10;;;;;;10425930;28;20237;-72
2022/11/29 07:42:00;;;;;;;12.30;11.10;;;9.00;48.10;;;;;;10424012;28;20229;-72
2022/11/29 07:47:04;;;;;;;11.90;10.80;;;9.00;48.10;;;;;;10420822;28;20295;-72
2022/11/29 07:52:11;;;;;;;11.77;10.67;;;8.90;47.90;;;;;;10426118;28;20316;-73
2022/11/29 07:57:14;;;;;;;11.73;10.63;;;8.90;48.20;;;;;;10424543;28;20307;-72
2022/11/29 08:02:28;;;;;;;13.33;11.97;;;8.90;47.90;;;;;;10420936;28;20246;-72
2022/11/29 08:07:34;;;;;;;12.07;10.80;;;8.90;48.40;;;;;;10419627;28;20927;-74
2022/11/29 08:12:42;;;;;;;13.20;11.90;;;8.90;48.20;;;;;;10421075;28;20776;-74
2022/11/29 08:17:47;;;;;;;12.63;11.40;;;9.00;48.40;;;;;;10425578;28;20299;-72
2022/11/29 08:22:58;;;;;;;12.83;11.53;;;9.10;48.20;;;;;;10423454;28;20260;-72
2022/11/29 08:28:02;;;;;;;14.13;12.83;;;9.10;48.40;;;;;;10425983;28;20739;-72
2022/11/29 08:33:07;;;;;;;13.17;11.87;;;9.10;48.00;;;;;;10421156;28;20972;-72
2022/11/29 08:38:10;;;;;;;13.93;12.53;;;9.10;48.20;;;;;;10423821;28;20217;-72
2022/11/29 08:43:13;;;;;;;13.67;12.27;;;9.10;48.10;;;;;;10418643;28;20260;-72
2022/11/29 08:48:18;;;;;;;12.93;11.63;;;9.00;48.10;;;;;;10426745;28;20232;-72
2022/11/29 08:58:42;;;;;;;14.47;13.07;;;9.10;48.20;;;;;;10424176;28;20693;-72
2022/11/29 09:04:02;;;;;;;12.67;11.43;;;9.10;48.20;;;;;;10420431;28;20275;-72
2022/11/29 09:09:05;;;;;;;13.63;12.33;;;9.10;48.60;;;;;;10427798;28;20232;-68
2022/11/29 09:14:14;;;;;;;13.63;12.33;;;9.10;48.50;;;;;;10422167;28;20236;-69
2022/11/29 09:19:19;;;;;;;13.50;12.27;;;9.20;48.60;;;;;;10428952;28;20229;-68
2022/11/29 09:24:22;;;;;;;13.73;12.10;;;9.20;48.70;;;;;;10425161;28;20236;-69
2022/11/29 09:29:25;;;;;;;13.47;12.23;;;9.20;48.50;;;;;;10427599;28;20252;-69
2022/11/29 09:34:29;;;;;;;12.70;11.40;;;9.30;48.40;;;;;;10421102;28;20230;-69
2022/11/29 09:39:32;;;;;;;12.73;11.37;;;9.30;48.40;;;;;;10425314;28;20777;-69
2022/11/29 09:44:48;;;;;;;12.67;11.50;;;9.30;48.30;;;;;;10423630;28;20286;-69
2022/11/29 09:50:15;;;;;;;13.97;12.17;;;9.40;48.80;;;;;;10421994;28;20224;-68
2022/11/29 09:55:45;;;;;;;13.00;11.70;;;9.40;49.10;;;;;;10434228;28;20225;-69
2022/11/29 10:00:50;;;;;;;11.77;10.63;;;9.40;48.90;;;;;;10430133;28;20278;-68
2022/11/29 10:05:58;;;;;;;12.93;11.70;;;9.40;48.70;;;;;;10434123;28;20637;-69
2022/11/29 10:11:14;;;;;;;12.83;11.60;;;9.40;48.80;;;;;;10437317;28;20238;-68
2022/11/29 10:16:25;;;;;;;13.33;11.93;;;9.50;49.00;;;;;;10434377;28;20225;-68
2022/11/29 10:21:34;;;;;;;13.83;12.23;;;9.50;48.90;;;;;;10438056;28;20744;-70
2022/11/29 10:26:42;;;;;;;15.30;13.80;;;9.60;48.90;;;;;;10438200;28;20240;-68
2022/11/29 10:31:48;;;;;;;14.10;12.70;;;9.60;49.00;;;;;;10433639;28;20234;-68
2022/11/29 10:36:57;;;;;;;13.03;11.73;;;9.70;48.80;;;;;;10431457;28;20229;-68
2022/11/29 10:42:02;;;;;;;13.63;12.20;;;9.70;48.90;;;;;;10443298;28;20294;-68
2022/11/29 10:47:05;;;;;;;14.10;12.80;;;9.70;48.70;;;;;;10436756;28;20430;-68
2022/11/29 10:52:18;;;;;;;13.83;12.43;;;9.70;48.60;;;;;;10434104;28;20228;-68
2022/11/29 10:57:22;;;;;;;12.90;11.60;;;9.70;49.10;;;;;;10437460;28;20232;-68
2022/11/29 11:02:26;;;;;;;13.17;11.77;;;9.70;48.70;;;;;;10435061;28;20622;-68
2022/11/29 11:07:33;;;;;;;13.37;12.17;;;9.80;48.70;;;;;;10432827;28;20225;-68
2022/11/29 11:12:37;;;;;;;12.13;11.03;;;9.70;48.40;;;;;;10432491;28;20230;-73
2022/11/29 11:17:41;;;;;;;13.57;12.17;;;9.70;48.40;;;;;;10430487;28;20287;-73
2022/11/29 11:22:57;;;;;;;12.93;11.73;;;9.70;48.60;;;;;;10430414;28;20257;-73
2022/11/29 11:28:16;;;;;;;12.93;11.63;;;9.70;49.10;;;;;;10426771;28;20225;-73
2022/11/29 11:33:22;;;;;;;12.90;11.63;;;9.70;49.20;;;;;;10428410;28;20229;-73
2022/11/29 11:38:26;;;;;;;11.97;10.87;;;9.80;48.90;;;;;;10430913;28;20240;-73
2022/11/29 11:43:30;;;;;;;11.63;10.53;;;9.80;48.90;;;;;;10422730;28;20694;-73
2022/11/29 11:48:33;;;;;;;11.73;10.63;;;9.80;48.70;;;;;;10424101;28;20229;-73
2022/11/29 11:53:39;;;;;;;10.83;9.87;;;9.80;48.90;;;;;;10421025;28;20300;-70
2022/11/29 11:58:47;;;;;;;11.30;10.30;;;9.80;48.90;;;;;;10418499;28;20283;-71
2022/11/29 12:03:56;;;;;;;11.57;10.57;;;9.90;49.10;;;;;;10414552;28;20232;-71
2022/11/29 12:09:06;;;;;;;11.33;10.33;;;9.90;48.90;;;;;;10422628;28;20232;-71
2022/11/29 12:14:17;;;;;;;9.57;8.73;;;9.90;49.10;;;;;;10421627;28;20693;-68
2022/11/29 12:19:25;;;;;;;11.13;10.13;;;10.00;48.20;;;;;;10414115;28;20237;-68
2022/11/29 12:24:34;;;;;;;12.33;11.23;;;10.00;48.00;;;;;;10405299;28;20233;-68
2022/11/29 12:29:37;;;;;;;11.37;10.37;;;10.10;47.90;;;;;;10424332;28;20734;-68
2022/11/29 12:34:56;;;;;;;10.83;9.73;;;10.10;47.60;;;;;;10431024;28;20708;-68
2022/11/29 12:40:07;;;;;;;10.87;9.87;;;10.10;48.10;;;;;;10427984;28;20237;-68
2022/11/29 12:45:29;;;;;;;12.63;11.50;;;10.20;48.10;;;;;;10425946;28;20799;-68
2022/11/29 12:50:42;;;;;;;12.60;11.50;;;10.20;48.20;;;;;;10424602;28;20639;-68
2022/11/29 12:55:57;;;;;;;12.87;11.77;;;10.20;48.10;;;;;;10421468;28;20290;-68
2022/11/29 13:01:08;;;;;;;13.50;12.20;;;10.30;47.90;;;;;;10422634;28;20221;-68
2022/11/29 13:06:23;;;;;;;13.03;11.87;;;10.30;47.80;;;;;;10429342;28;20688;-68
2022/11/29 13:11:30;;;;;;;12.70;11.57;;;10.30;47.70;;;;;;10425652;28;20291;-68
2022/11/29 13:16:44;;;;;;;13.27;12.07;;;10.40;47.80;;;;;;10422529;28;20233;-68
2022/11/29 13:21:54;;;;;;;13.17;11.97;;;10.40;47.90;;;;;;10426325;28;20310;-68
2022/11/29 13:27:01;;;;;;;14.00;12.50;;;10.40;47.80;;;;;;10420822;28;20233;-68
2022/11/29 13:32:06;;;;;;;12.40;11.30;;;10.40;47.70;;;;;;10426630;28;20221;-68
2022/11/29 13:37:22;;;;;;;12.90;11.73;;;10.50;47.70;;;;;;10436507;28;20228;-68
2022/11/29 13:42:37;;;;;;;11.57;10.57;;;10.50;47.90;;;;;;10428133;28;20229;-68
2022/11/29 13:47:48;;;;;;;13.00;11.80;;;10.50;47.70;;;;;;10429765;28;20589;-68
2022/11/29 13:53:03;;;;;;;13.43;12.23;;;10.60;47.50;;;;;;10383082;28;1399793;-68
2022/11/29 13:58:30;;;;;;;12.77;11.57;;;10.60;47.50;;;;;;10433846;28;20220;-70
2022/11/29 14:03:37;;;;;;;13.23;11.97;;;10.50;47.30;;;;;;10431656;28;20283;-70
2022/11/29 14:08:45;;;;;;;14.07;12.77;;;10.50;47.20;;;;;;10435790;28;20701;-70
2022/11/29 14:14:19;;;;;;;12.50;11.30;;;10.60;47.20;;;;;;10431236;28;20347;-70
2022/11/29 14:19:25;;;;;;;14.83;13.37;;;10.60;47.30;;;;;;10429700;28;20236;-70
2022/11/29 14:24:39;;;;;;;15.93;14.23;;;10.60;47.20;;;;;;10434014;28;20236;-70
2022/11/29 14:29:57;;;;;;;15.07;13.60;;;10.50;47.10;;;;;;10428183;28;20368;-70
2022/11/29 14:35:06;;;;;;;13.13;11.83;;;10.60;47.20;;;;;;10431825;28;20234;-70
2022/11/29 14:40:22;;;;;;;12.33;11.23;;;10.60;47.90;;;;;;10430534;28;20228;-70
2022/11/29 14:45:30;;;;;;;12.20;11.00;;;10.60;47.30;;;;;;10424803;28;20255;-70
2022/11/29 14:50:36;;;;;;;11.97;10.87;;;10.60;47.10;;;;;;10428620;28;20246;-70
2022/11/29 14:55:39;;;;;;;12.43;11.27;;;10.60;47.10;;;;;;10431984;28;20645;-70
2022/11/29 15:01:01;;;;;;;11.20;10.20;;;10.50;47.00;;;;;;10426773;28;20240;-70
2022/11/29 15:06:27;;;;;;;12.67;11.40;;;10.50;47.30;;;;;;10427353;28;20229;-70
2022/11/29 15:11:52;;;;;;;11.70;10.63;;;10.50;47.30;;;;;;10426455;28;20236;-72
2022/11/29 15:17:05;;;;;;;10.40;9.40;;;10.50;47.60;;;;;;10429296;28;20700;-70
2022/11/29 15:22:16;;;;;;;12.00;11.00;;;10.60;50.30;;;;;;10423854;28;20232;-69
2022/11/29 15:27:20;;;;;;;13.20;12.00;;;10.70;49.60;;;;;;10418769;28;20229;-70
2022/11/29 15:32:29;;;;;;;12.73;11.63;;;10.80;48.00;;;;;;10423437;28;20229;-70
2022/11/29 15:37:43;;;;;;;11.93;10.83;;;10.90;47.30;;;;;;10425795;28;20237;-70
2022/11/29 15:42:51;;;;;;;12.00;10.80;;;10.90;46.70;;;;;;10424945;28;20237;-71
2022/11/29 15:48:11;;;;;;;12.13;11.03;;;10.80;47.20;;;;;;10429654;28;20776;-75
2022/11/29 15:53:19;;;;;;;12.80;11.60;;;10.80;47.20;;;;;;10421405;28;20638;-69
2022/11/29 15:58:23;;;;;;;11.37;10.30;;;10.80;47.80;;;;;;10433058;28;20241;-68
2022/11/29 16:03:30;;;;;;;12.30;11.20;;;10.90;47.80;;;;;;10429451;28;20240;-69
2022/11/29 16:08:36;;;;;;;12.00;10.90;;;10.90;47.40;;;;;;10430258;28;20302;-68
2022/11/29 16:13:40;;;;;;;11.27;10.27;;;10.90;47.00;;;;;;10422263;28;20272;-68
2022/11/29 16:18:46;;;;;;;12.47;11.33;;;10.80;46.90;;;;;;10419895;28;20234;-68
2022/11/29 16:23:49;;;;;;;12.37;11.27;;;10.80;46.70;;;;;;10423783;28;20229;-68
2022/11/29 16:28:56;;;;;;;12.37;11.17;;;10.80;46.60;;;;;;10418465;28;20225;-68
2022/11/29 16:34:07;;;;;;;11.57;10.50;;;10.70;46.50;;;;;;10421735;28;20232;-68
2022/11/29 16:39:22;;;;;;;11.73;10.63;;;10.70;46.60;;;;;;10416586;28;20713;-68
2022/11/29 16:44:59;;;;;;;11.40;10.30;;;10.60;46.40;;;;;;10421396;28;20282;-68
2022/11/29 16:50:13;;;;;;;11.90;10.80;;;10.60;46.50;;;;;;10413697;28;20228;-68
2022/11/29 16:55:17;;;;;;;12.50;11.37;;;10.60;46.60;;;;;;10422061;28;20234;-68
2022/11/29 17:00:30;;;;;;;13.73;12.43;;;10.60;46.70;;;;;;10421840;28;20291;-68
2022/11/29 17:05:35;;;;;;;12.67;11.47;;;10.50;46.60;;;;;;10422225;28;20229;-68
2022/11/29 17:10:46;;;;;;;13.60;12.33;;;10.50;46.60;;;;;;10415691;28;20625;-68
2022/11/29 17:15:49;;;;;;;14.40;13.10;;;10.50;46.50;;;;;;10414013;28;20291;-68
2022/11/29 17:20:56;;;;;;;14.13;12.80;;;10.50;46.50;;;;;;10433400;28;20236;-68
2022/11/29 17:26:01;;;;;;;12.47;11.27;;;10.40;46.20;;;;;;10428366;28;20869;-72
2022/11/29 17:31:08;;;;;;;13.77;12.37;;;10.40;46.40;;;;;;10419227;28;20998;-72
2022/11/29 17:36:15;;;;;;;14.20;12.80;;;10.30;46.30;;;;;;10423384;28;20282;-72
2022/11/29 17:41:21;;;;;;;14.33;12.93;;;10.30;46.30;;;;;;10423455;28;20226;-72
2022/11/29 17:46:26;;;;;;;15.00;13.60;;;10.20;46.10;;;;;;10425190;28;20315;-72
2022/11/29 17:51:31;;;;;;;12.93;11.73;;;10.20;46.00;;;;;;10423920;28;20245;-72
2022/11/29 17:56:54;;;;;;;13.87;12.57;;;10.10;46.20;;;;;;10423682;28;20315;-68
2022/11/29 18:01:58;;;;;;;14.80;13.13;;;10.10;46.20;;;;;;10424049;28;20237;-68
2022/11/29 18:07:04;;;;;;;13.30;12.00;;;10.10;46.20;;;;;;10420539;28;21241;-68
2022/11/29 18:12:07;;;;;;;14.37;13.03;;;10.10;46.50;;;;;;10417608;28;20233;-68
2022/11/29 18:17:10;;;;;;;14.10;12.80;;;10.00;46.30;;;;;;10415551;28;20263;-67
2022/11/29 18:22:14;;;;;;;14.53;13.03;;;10.10;46.10;;;;;;10417011;28;20232;-67
2022/11/29 18:27:18;;;;;;;14.27;12.93;;;10.00;46.00;;;;;;10414608;28;20252;-67
2022/11/29 18:32:21;;;;;;;15.07;13.67;;;10.00;46.30;;;;;;10417708;28;20968;-67
2022/11/29 18:37:25;;;;;;;14.17;12.83;;;10.00;46.40;;;;;;10424418;28;20236;-67
2022/11/29 18:42:49;;;;;;;14.43;13.03;;;10.00;46.40;;;;;;10427638;28;20237;-67
2022/11/29 18:47:52;;;;;;;14.47;13.07;;;10.00;46.30;;;;;;10422509;28;20315;-67
2022/11/29 18:52:57;;;;;;;16.07;14.37;;;9.90;47.10;;;;;;10421755;28;20233;-67
2022/11/29 18:58:00;;;;;;;14.30;13.00;;;9.90;47.20;;;;;;10423166;28;20238;-67
2022/11/29 19:03:03;;;;;;;16.13;14.63;;;9.90;47.30;;;;;;10422725;28;20272;-67
2022/11/29 19:08:08;;;;;;;16.27;14.67;;;9.90;47.30;;;;;;10424193;28;20248;-67
2022/11/29 19:13:11;;;;;;;16.67;15.03;;;9.90;47.30;;;;;;10426303;28;20283;-67
2022/11/29 19:18:14;;;;;;;15.10;13.60;;;9.90;47.50;;;;;;10421817;28;20233;-67
2022/11/29 19:23:18;;;;;;;15.97;14.47;;;9.90;47.40;;;;;;10423721;28;20264;-67
2022/11/29 19:28:21;;;;;;;16.60;15.00;;;9.90;47.50;;;;;;10426625;28;20641;-67
2022/11/29 19:33:24;;;;;;;17.07;15.23;;;9.90;47.40;;;;;;10421203;28;20912;-67
2022/11/29 19:38:29;;;;;;;17.63;14.30;;;9.90;47.30;;;;;;10424293;28;20235;-67
2022/11/29 19:43:32;;;;;;;16.07;14.47;;;9.90;47.20;;;;;;10420261;28;20229;-67
2022/11/29 19:48:36;;;;;;;15.53;13.93;;;9.80;47.00;;;;;;10423159;28;20225;-67
2022/11/29 19:53:40;;;;;;;15.97;14.37;;;9.80;47.30;;;;;;10417013;28;20233;-67
2022/11/29 19:58:44;;;;;;;15.73;14.17;;;9.80;47.40;;;;;;10416680;28;20241;-67
2022/11/29 20:03:47;;;;;;;16.63;14.93;;;9.80;47.40;;;;;;10416129;28;20627;-67
2022/11/29 20:08:52;;;;;;;16.70;15.00;;;9.80;47.40;;;;;;10422967;28;20240;-67
2022/11/29 20:13:57;;;;;;;15.40;13.80;;;9.80;47.40;;;;;;10420662;28;20786;-67
2022/11/29 20:19:00;;;;;;;14.67;13.17;;;9.80;47.40;;;;;;10424498;28;20593;-67
2022/11/29 20:24:06;;;;;;;16.17;14.43;;;9.80;47.50;;;;;;10422061;28;20685;-67
2022/11/29 20:29:10;;;;;;;15.27;13.70;;;9.70;47.40;;;;;;10438964;28;20244;-67
2022/11/29 20:34:14;;;;;;;16.30;14.63;;;9.70;47.40;;;;;;10429512;28;20233;-67
2022/11/29 20:39:30;;;;;;;15.87;14.33;;;9.70;47.50;;;;;;10434138;28;20233;-67
2022/11/29 20:44:37;;;;;;;19.70;17.70;;;9.70;47.50;;;;;;10428312;28;20649;-72
2022/11/29 20:49:40;;;;;;;19.50;17.50;;;9.70;47.30;;;;;;10419431;28;20233;-72
2022/11/29 20:54:45;;;;;;;17.00;15.33;;;9.70;47.40;;;;;;10422726;28;20328;-71
2022/11/29 20:59:48;;;;;;;19.43;17.43;;;9.70;47.30;;;;;;10426017;28;20233;-71
2022/11/29 21:04:52;;;;;;;18.23;16.33;;;9.70;47.30;;;;;;10422567;28;20567;-71
2022/11/29 21:09:56;;;;;;;16.17;14.40;;;9.70;46.60;;;;;;10423716;28;20302;-71
2022/11/29 21:15:04;;;;;;;16.47;14.77;;;9.60;46.50;;;;;;10425378;28;20263;-71
2022/11/29 21:20:09;;;;;;;18.07;16.27;;;9.60;47.00;;;;;;10422476;28;20237;-71
2022/11/29 21:25:21;;;;;;;16.37;14.63;;;9.50;46.70;;;;;;10418576;28;20705;-71
2022/11/29 21:30:25;;;;;;;18.83;16.27;;;9.50;46.40;;;;;;10423317;28;20244;-71
2022/11/29 21:35:28;;;;;;;20.37;16.93;;;9.40;46.30;;;;;;10422749;28;20248;-71
2022/11/29 21:40:33;;;;;;;18.90;16.23;;;9.40;46.30;;;;;;10427547;28;20231;-71
2022/11/29 21:45:36;;;;;;;19.43;17.03;;;9.30;46.10;;;;;;10429055;28;20224;-71
2022/11/29 21:50:39;;;;;;;20.17;17.10;;;9.30;46.20;;;;;;10419722;28;20249;-71
2022/11/29 21:55:44;;;;;;;16.77;14.77;;;9.20;46.10;;;;;;10421728;28;20283;-72
2022/11/29 22:00:47;;;;;;;18.57;16.57;;;9.20;46.10;;;;;;10427747;28;20284;-72
2022/11/29 22:05:50;;;;;;;22.33;17.00;;;9.20;46.50;;;;;;10428154;28;20803;-71
2022/11/29 22:11:02;;;;;;;52.93;30.50;;;9.20;46.70;;;;;;10425361;28;20229;-71
2022/11/29 22:16:07;;;;;;;39.93;25.07;;;9.20;46.80;;;;;;10432257;28;20229;-71
2022/11/29 22:21:10;;;;;;;21.37;17.63;;;9.20;46.70;;;;;;10429412;28;20237;-71
2022/11/29 22:26:15;;;;;;;21.40;17.87;;;9.30;46.90;;;;;;10423568;28;20225;-71
2022/11/29 22:31:18;;;;;;;24.83;18.70;;;9.30;46.80;;;;;;10429884;28;20716;-72
2022/11/29 22:36:22;;;;;;;25.77;18.70;;;9.30;46.90;;;;;;10425936;28;20240;-71
2022/11/29 22:41:26;;;;;;;27.77;20.50;;;9.40;46.90;;;;;;10426120;28;20240;-71
2022/11/29 22:46:30;;;;;;;23.03;17.70;;;9.40;46.80;;;;;;10428400;28;21275;-71
2022/11/29 22:51:35;;;;;;;18.53;16.57;;;9.40;46.70;;;;;;10425996;28;20296;-71
2022/11/29 22:56:41;;;;;;;19.23;17.10;;;9.40;46.60;;;;;;10428834;28;20233;-72
2022/11/29 23:01:45;;;;;;;15.60;13.87;;;9.40;46.60;;;;;;10425048;28;20248;-71
2022/11/29 23:06:48;;;;;;;18.23;16.10;;;9.40;46.80;;;;;;10425592;28;20240;-71
2022/11/29 23:11:54;;;;;;;18.07;16.13;;;9.40;46.70;;;;;;10430687;28;20233;-67
2022/11/29 23:16:58;;;;;;;20.13;17.57;;;9.40;46.40;;;;;;10433132;28;20247;-67
2022/11/29 23:22:01;;;;;;;20.90;17.57;;;9.40;46.60;;;;;;10435287;28;20229;-67
2022/11/29 23:27:06;;;;;;;20.03;17.33;;;9.40;46.70;;;;;;10432184;28;20232;-67
2022/11/29 23:32:09;;;;;;;16.37;14.63;;;9.40;46.30;;;;;;10428338;28;20241;-67
2022/11/29 23:37:12;;;;;;;19.87;16.27;;;9.40;46.50;;;;;;10438023;28;20240;-67
2022/11/29 23:42:16;;;;;;;18.77;16.73;;;9.50;46.60;;;;;;10422361;28;20287;-67
2022/11/29 23:47:20;;;;;;;19.87;16.00;;;9.40;46.30;;;;;;10432027;28;20233;-67
2022/11/29 23:52:23;;;;;;;18.70;16.70;;;9.40;46.50;;;;;;10439482;28;20731;-67
2022/11/29 23:57:29;;;;;;;20.07;16.93;;;9.40;46.30;;;;;;10438065;28;20650;-67
